createdAt,value
2018-09-04T00:00:18.915Z,96.60
2018-09-04T00:02:47.939Z,96.60
2018-09-04T00:05:16.943Z,96.60
2018-09-04T00:07:45.899Z,96.60
2018-09-04T00:10:15.630Z,96.40
2018-09-04T00:12:44.637Z,96.50
2018-09-04T00:15:13.696Z,96.50
2018-09-04T00:17:42.695Z,96.60
2018-09-04T00:20:11.667Z,96.70
2018-09-04T00:22:40.641Z,96.80
2018-09-04T00:25:09.711Z,96.90
2018-09-04T00:27:38.659Z,96.90
2018-09-04T00:30:08.095Z,96.90
2018-09-04T00:32:37.088Z,97.00
2018-09-04T00:35:06.287Z,97.00
2018-09-04T00:37:35.372Z,97.00
2018-09-04T00:40:04.542Z,97.00
2018-09-04T00:42:33.471Z,97.00
2018-09-04T00:45:02.575Z,97.00
2018-09-04T00:47:31.535Z,96.90
2018-09-04T00:50:00.535Z,96.90
2018-09-04T00:52:29.471Z,96.90
2018-09-04T00:54:58.488Z,96.90
2018-09-04T00:57:27.519Z,96.90
2018-09-04T00:59:56.449Z,96.90
2018-09-04T01:02:25.571Z,96.90
2018-09-04T01:04:54.552Z,96.90
2018-09-04T01:07:23.563Z,96.90
2018-09-04T01:09:52.560Z,96.90
2018-09-04T01:12:21.563Z,97.10
2018-09-04T01:14:54.420Z,97.10
2018-09-04T01:17:23.432Z,97.20
2018-09-04T01:19:52.488Z,97.20
2018-09-04T01:22:21.630Z,96.90
2018-09-04T01:24:50.654Z,97.20
2018-09-04T01:27:19.690Z,97.20
2018-09-04T01:29:48.627Z,97.20
2018-09-04T01:32:17.636Z,97.10
2018-09-04T01:34:46.555Z,97.00
2018-09-04T01:37:15.564Z,97.00
2018-09-04T01:39:44.535Z,97.00
2018-09-04T01:42:13.459Z,97.20
2018-09-04T01:44:42.479Z,97.20
2018-09-04T01:47:11.431Z,96.90
2018-09-04T01:49:40.441Z,97.00
2018-09-04T01:52:09.375Z,97.10
2018-09-04T01:54:38.295Z,97.10
2018-09-04T01:57:07.631Z,97.20
2018-09-04T01:59:36.549Z,97.20
2018-09-04T02:02:05.779Z,97.10
2018-09-04T02:04:34.827Z,97.10
2018-09-04T02:07:03.923Z,97.10
2018-09-04T02:09:32.879Z,97.10
2018-09-04T02:12:01.795Z,97.20
2018-09-04T02:14:30.758Z,97.20
2018-09-04T02:16:59.728Z,97.30
2018-09-04T02:19:28.675Z,97.40
2018-09-04T02:21:57.667Z,97.40
2018-09-04T02:24:26.612Z,97.50
2018-09-04T02:26:55.628Z,97.60
2018-09-04T02:29:24.591Z,97.60
2018-09-04T02:31:53.533Z,97.70
2018-09-04T02:34:22.496Z,97.70
2018-09-04T02:36:51.480Z,97.70
2018-09-04T02:39:20.507Z,97.70
2018-09-04T02:41:54.832Z,98.20
2018-09-04T02:44:23.859Z,97.90
2018-09-04T02:46:52.835Z,97.80
2018-09-04T02:49:21.823Z,97.80
2018-09-04T02:51:50.843Z,97.90
2018-09-04T02:54:19.960Z,98.00
2018-09-04T02:56:48.912Z,98.00
2018-09-04T02:59:17.965Z,98.00
2018-09-04T03:01:47.003Z,98.00
2018-09-04T03:04:15.966Z,98.00
2018-09-04T03:06:44.900Z,98.10
2018-09-04T03:09:13.888Z,98.30
2018-09-04T03:11:42.881Z,98.40
2018-09-04T03:14:11.824Z,98.60
2018-09-04T03:16:40.824Z,98.70
2018-09-04T03:19:09.787Z,98.70
2018-09-04T03:21:38.795Z,98.80
2018-09-04T03:24:07.823Z,98.80
2018-09-04T03:26:36.913Z,98.80
2018-09-04T03:29:05.898Z,98.90
2018-09-04T03:31:34.884Z,98.80
2018-09-04T03:34:03.863Z,98.80
2018-09-04T03:36:32.923Z,98.70
2018-09-04T03:39:01.903Z,98.70
2018-09-04T03:41:30.871Z,98.80
2018-09-04T03:43:59.893Z,98.80
2018-09-04T03:46:28.937Z,98.90
2018-09-04T03:48:57.931Z,99.00
2018-09-04T03:51:26.944Z,98.90
2018-09-04T03:53:55.879Z,99.00
2018-09-04T03:56:24.876Z,98.90
2018-09-04T03:58:53.928Z,98.90
2018-09-04T04:01:22.904Z,98.90
2018-09-04T04:03:51.848Z,98.90
2018-09-04T04:06:20.816Z,98.80
2018-09-04T04:08:49.761Z,98.70
2018-09-04T04:11:18.808Z,98.70
2018-09-04T04:13:47.745Z,98.90
2018-09-04T04:16:16.796Z,98.80
2018-09-04T04:18:45.795Z,99.90
2018-09-04T04:21:14.799Z,98.80
2018-09-04T04:23:43.771Z,98.60
2018-09-04T04:26:12.828Z,98.50
2018-09-04T04:28:41.953Z,98.70
2018-09-04T04:31:10.902Z,98.70
2018-09-04T04:33:39.948Z,99.00
2018-09-04T04:36:08.970Z,99.20
2018-09-04T04:38:38.008Z,99.40
2018-09-04T04:41:07.221Z,99.50
2018-09-04T04:43:36.304Z,99.60
2018-09-04T04:46:05.387Z,99.50
2018-09-04T04:48:34.360Z,99.70
2018-09-04T04:51:03.365Z,99.90
2018-09-04T04:53:32.332Z,99.90
2018-09-04T04:56:01.314Z,99.90
2018-09-04T04:58:30.281Z,99.30
2018-09-04T05:00:59.412Z,98.30
2018-09-04T05:03:28.403Z,98.20
2018-09-04T05:05:57.437Z,98.10
2018-09-04T05:08:26.449Z,98.10
2018-09-04T05:10:55.404Z,98.00
2018-09-04T05:13:24.495Z,98.10
2018-09-04T05:15:57.881Z,99.60
2018-09-04T05:18:27.003Z,99.00
2018-09-04T05:20:56.043Z,97.90
2018-09-04T05:23:25.650Z,98.00
2018-09-04T05:25:54.603Z,98.00
2018-09-04T05:28:23.577Z,98.00
2018-09-04T05:30:52.575Z,97.80
2018-09-04T05:33:25.720Z,97.70
2018-09-04T05:35:56.624Z,97.80
2018-09-04T05:38:25.592Z,97.60
2018-09-04T05:40:54.568Z,97.50
2018-09-04T05:43:31.880Z,97.50
2018-09-04T05:46:03.563Z,97.70
2018-09-04T05:48:32.641Z,97.50
2018-09-04T05:51:01.588Z,97.50
2018-09-04T05:53:30.668Z,97.30
2018-09-04T05:55:59.661Z,97.30
2018-09-04T05:58:28.652Z,97.30
2018-09-04T06:00:59.858Z,97.40
2018-09-04T06:03:28.875Z,97.30
2018-09-04T06:05:57.859Z,97.10
2018-09-04T06:08:26.791Z,96.70
2018-09-04T06:10:55.810Z,96.50
2018-09-04T06:13:24.759Z,96.40
2018-09-04T06:15:53.731Z,95.70
2018-09-04T06:18:22.684Z,96.00
2018-09-04T06:20:51.612Z,95.80
2018-09-04T06:23:20.609Z,95.80
2018-09-04T06:25:49.599Z,95.80
2018-09-04T06:28:18.584Z,96.00
2018-09-04T06:30:47.683Z,95.90
2018-09-04T06:33:16.663Z,95.70
2018-09-04T06:35:45.636Z,95.90
2018-09-04T06:38:14.609Z,95.90
2018-09-04T06:40:43.659Z,95.90
2018-09-04T06:43:12.632Z,95.70
2018-09-04T06:45:41.628Z,95.50
2018-09-04T06:48:10.591Z,95.30
2018-09-04T06:50:39.611Z,95.30
2018-09-04T06:53:08.607Z,95.00
2018-09-04T06:55:37.546Z,95.00
2018-09-04T06:58:06.540Z,95.00
2018-09-04T07:00:35.580Z,94.60
2018-09-04T07:03:04.551Z,94.30
2018-09-04T07:05:33.517Z,94.30
2018-09-04T07:08:02.590Z,94.10
2018-09-04T07:10:32.313Z,94.00
2018-09-04T07:13:01.344Z,94.00
2018-09-04T07:15:30.375Z,94.00
2018-09-04T07:17:59.404Z,93.80
2018-09-04T07:20:28.499Z,93.30
2018-09-04T07:22:57.571Z,92.80
2018-09-04T07:25:26.881Z,93.30
2018-09-04T07:27:55.800Z,92.90
2018-09-04T07:30:24.792Z,92.80
2018-09-04T07:32:53.792Z,92.80
2018-09-04T07:35:23.100Z,92.70
2018-09-04T07:37:52.099Z,92.60
2018-09-04T07:40:21.115Z,92.40
2018-09-04T07:42:50.074Z,92.40
2018-09-04T07:45:19.079Z,92.10
2018-09-04T07:47:48.135Z,91.90
2018-09-04T07:50:17.209Z,91.40
2018-09-04T07:52:46.532Z,91.60
2018-09-04T07:55:15.526Z,91.30
2018-09-04T07:57:44.560Z,91.30
2018-09-04T08:00:13.612Z,91.60
2018-09-04T08:02:42.609Z,91.60
2018-09-04T08:05:11.613Z,91.80
2018-09-04T08:07:40.660Z,91.70
2018-09-04T08:10:09.731Z,91.90
2018-09-04T08:12:39.248Z,91.70
2018-09-04T08:15:08.359Z,90.90
2018-09-04T08:17:37.336Z,90.50
2018-09-04T08:20:06.483Z,90.30
2018-09-04T08:22:35.439Z,89.10
2018-09-04T08:25:04.416Z,88.70
2018-09-04T08:27:33.412Z,86.00
2018-09-04T08:30:02.413Z,85.90
2018-09-04T08:32:31.427Z,85.20
2018-09-04T08:35:00.467Z,84.40
2018-09-04T08:37:29.460Z,82.10
2018-09-04T08:39:58.615Z,82.60
2018-09-04T08:42:27.584Z,83.70
2018-09-04T08:44:56.580Z,82.70
2018-09-04T08:47:25.631Z,84.70
2018-09-04T08:49:54.633Z,83.00
2018-09-04T08:52:23.642Z,81.70
2018-09-04T08:54:52.579Z,81.70
2018-09-04T08:57:21.602Z,81.70
2018-09-04T08:59:50.584Z,81.40
2018-09-04T09:02:20.267Z,81.40
2018-09-04T09:04:49.262Z,81.10
2018-09-04T09:07:18.228Z,80.50
2018-09-04T09:09:47.200Z,79.80
2018-09-04T09:12:16.132Z,80.30
2018-09-04T09:14:45.111Z,79.80
2018-09-04T09:17:14.101Z,79.70
2018-09-04T09:19:43.051Z,80.20
2018-09-04T09:22:12.020Z,80.40
2018-09-04T09:24:41.120Z,79.20
2018-09-04T09:27:10.316Z,79.40
2018-09-04T09:29:39.379Z,79.00
2018-09-04T09:32:08.375Z,79.00
2018-09-04T09:34:37.373Z,78.20
2018-09-04T09:37:06.466Z,78.40
2018-09-04T09:39:35.457Z,78.70
2018-09-04T09:42:04.444Z,79.30
2018-09-04T09:44:33.436Z,79.50
2018-09-04T09:47:03.462Z,79.70
2018-09-04T09:49:33.275Z,80.10
2018-09-04T09:52:02.294Z,80.80
2018-09-04T09:54:31.331Z,80.80
2018-09-04T09:57:00.266Z,81.10
2018-09-04T09:59:29.326Z,80.40
2018-09-04T10:02:03.404Z,80.30
2018-09-04T10:04:32.469Z,80.10
2018-09-04T10:07:01.451Z,80.00
2018-09-04T10:09:30.430Z,79.50
2018-09-04T10:11:59.508Z,79.50
2018-09-04T10:14:28.579Z,80.20
2018-09-04T10:16:57.676Z,81.10
2018-09-04T10:19:26.700Z,81.50
2018-09-04T10:21:55.745Z,81.40
2018-09-04T10:24:25.533Z,81.50
2018-09-04T10:26:55.049Z,81.30
2018-09-04T10:29:24.016Z,81.20
2018-09-04T10:31:52.980Z,81.60
2018-09-04T10:34:22.057Z,81.30
2018-09-04T10:36:51.183Z,80.80
2018-09-04T10:39:25.413Z,80.50
2018-09-04T10:41:55.117Z,81.60
2018-09-04T10:44:24.160Z,81.30
2018-09-04T10:46:53.144Z,81.30
2018-09-04T10:49:22.095Z,80.10
2018-09-04T10:51:51.104Z,80.10
2018-09-04T10:54:20.163Z,79.40
2018-09-04T10:56:49.292Z,78.90
2018-09-04T10:59:18.308Z,79.60
2018-09-04T11:01:47.320Z,78.60
2018-09-04T11:04:16.283Z,78.50
2018-09-04T11:06:45.274Z,77.90
2018-09-04T11:09:14.494Z,77.50
2018-09-04T11:11:43.488Z,77.80
2018-09-04T11:14:12.583Z,77.90
2018-09-04T11:16:41.905Z,77.80
2018-09-04T11:19:10.875Z,78.10
2018-09-04T11:21:39.979Z,77.70
2018-09-04T11:24:08.932Z,76.50
2018-09-04T11:26:38.589Z,76.90
2018-09-04T11:29:08.809Z,77.50
2018-09-04T11:31:37.830Z,76.70
2018-09-04T11:34:06.848Z,76.50
2018-09-04T11:36:35.902Z,75.60
2018-09-04T11:39:06.636Z,76.10
2018-09-04T11:41:35.649Z,74.20
2018-09-04T11:44:04.684Z,73.20
2018-09-04T11:46:34.807Z,70.00
2018-09-04T11:49:04.399Z,68.80
2018-09-04T11:51:33.481Z,67.40
2018-09-04T11:54:02.503Z,67.20
2018-09-04T11:56:31.583Z,67.10
2018-09-04T11:59:00.714Z,65.60
2018-09-04T12:01:31.326Z,64.50
2018-09-04T12:04:00.395Z,63.00
2018-09-04T12:06:29.423Z,64.00
2018-09-04T12:08:58.447Z,60.50
2018-09-04T12:11:27.412Z,59.50
2018-09-04T12:13:56.394Z,57.10
2018-09-04T12:16:25.364Z,57.80
2018-09-04T12:18:54.461Z,57.00
2018-09-04T12:21:23.506Z,56.90
2018-09-04T12:23:52.484Z,57.20
2018-09-04T12:26:21.503Z,55.90
2018-09-04T12:28:51.114Z,55.20
2018-09-04T12:31:20.322Z,52.60
2018-09-04T12:33:49.316Z,52.50
2018-09-04T12:36:18.432Z,50.10
2018-09-04T12:38:47.572Z,49.00
2018-09-04T12:41:17.967Z,49.00
2018-09-04T12:43:47.007Z,49.40
2018-09-04T12:46:16.167Z,49.40
2018-09-04T12:48:50.393Z,45.80
2018-09-04T12:51:19.436Z,47.10
2018-09-04T12:53:48.499Z,47.40
2018-09-04T12:56:17.479Z,48.40
2018-09-04T12:58:46.515Z,48.70
2018-09-04T13:01:15.564Z,48.00
2018-09-04T13:03:44.936Z,49.20
2018-09-04T13:06:14.188Z,50.10
2018-09-04T13:08:43.216Z,50.70
2018-09-04T13:11:12.252Z,51.20
2018-09-04T13:13:41.287Z,48.10
2018-09-04T13:16:11.115Z,48.90
2018-09-04T13:18:40.258Z,50.80
2018-09-04T13:21:10.018Z,49.70
2018-09-04T13:23:41.924Z,48.90
2018-09-04T13:26:10.972Z,46.80
2018-09-04T13:28:40.116Z,45.50
2018-09-04T13:31:09.185Z,47.30
2018-09-04T13:33:38.212Z,46.90
2018-09-04T13:36:07.308Z,52.40
2018-09-04T13:38:36.384Z,53.90
2018-09-04T13:41:07.272Z,53.30
2018-09-04T13:43:37.528Z,54.50
2018-09-04T13:46:06.752Z,53.60
2018-09-04T13:48:36.072Z,53.40
2018-09-04T13:51:47.416Z,51.80
2018-09-04T13:54:16.567Z,51.30
2018-09-04T13:56:45.731Z,50.30
2018-09-04T13:59:15.001Z,47.50
2018-09-04T14:01:44.217Z,46.70
2018-09-04T14:04:13.429Z,46.80
2018-09-04T14:06:43.028Z,50.10
2018-09-04T14:09:13.053Z,47.50
2018-09-04T14:11:42.212Z,51.90
2018-09-04T14:14:12.852Z,49.80
2018-09-04T14:16:43.545Z,49.20
2018-09-04T14:19:11.397Z,50.30
2018-09-04T14:21:40.647Z,51.80
2018-09-04T14:24:09.923Z,51.50
2018-09-04T14:26:39.459Z,52.90
2018-09-04T14:29:09.302Z,54.10
2018-09-04T14:31:38.471Z,54.80
2018-09-04T14:34:07.637Z,53.00
2018-09-04T14:36:37.032Z,50.30
2018-09-04T14:39:06.617Z,50.50
2018-09-04T14:41:35.989Z,48.90
2018-09-04T14:44:06.532Z,47.50
2018-09-04T14:46:55.362Z,46.60
2018-09-04T14:49:24.533Z,46.90
2018-09-04T14:51:54.057Z,46.10
2018-09-04T14:54:23.848Z,47.40
2018-09-04T14:56:53.716Z,48.20
2018-09-04T14:59:23.223Z,46.70
2018-09-04T15:02:08.697Z,46.90
2018-09-04T15:04:38.237Z,48.20
2018-09-04T15:07:07.383Z,51.80
2018-09-04T15:09:37.021Z,51.60
2018-09-04T15:12:06.198Z,54.50
2018-09-04T15:14:35.393Z,55.20
2018-09-04T15:17:04.567Z,55.90
2018-09-04T15:19:33.700Z,57.80
2018-09-04T15:22:02.789Z,57.70
2018-09-04T15:24:31.936Z,57.20
2018-09-04T15:27:01.017Z,58.00
2018-09-04T15:29:30.197Z,58.60
2018-09-04T15:31:59.370Z,58.00
2018-09-04T15:34:28.469Z,59.30
2018-09-04T15:36:57.571Z,66.50
2018-09-04T15:39:26.578Z,68.40
2018-09-04T15:41:55.722Z,70.00
2018-09-04T15:44:24.758Z,70.30
2018-09-04T15:46:53.884Z,73.20
2018-09-04T15:49:28.142Z,74.70
2018-09-04T15:51:57.216Z,75.80
2018-09-04T15:54:26.290Z,77.00
2018-09-04T15:56:55.395Z,78.00
2018-09-04T15:59:24.414Z,77.90
2018-09-04T16:01:54.538Z,78.50
2018-09-04T16:04:23.672Z,79.00
2018-09-04T16:06:53.145Z,79.40
2018-09-04T16:09:22.282Z,80.50
2018-09-04T16:11:51.385Z,80.20
2018-09-04T16:14:20.432Z,80.70
2018-09-04T16:16:49.500Z,80.90
2018-09-04T16:19:18.641Z,81.40
2018-09-04T16:21:47.736Z,82.10
2018-09-04T16:24:16.873Z,82.20
2018-09-04T16:26:45.983Z,82.70
2018-09-04T16:29:16.120Z,82.60
2018-09-04T16:31:45.269Z,82.80
2018-09-04T16:34:14.409Z,83.30
2018-09-04T16:36:43.605Z,83.70
2018-09-04T16:39:12.761Z,83.50
2018-09-04T16:41:41.899Z,83.60
2018-09-04T16:44:11.717Z,83.60
2018-09-04T16:46:40.926Z,84.10
2018-09-04T16:49:10.196Z,84.80
2018-09-04T16:51:39.442Z,85.20
2018-09-04T16:54:08.754Z,85.40
2018-09-04T16:56:38.423Z,85.70
2018-09-04T16:59:08.337Z,85.90
2018-09-04T17:01:37.790Z,87.10
2018-09-04T17:04:06.977Z,86.50
2018-09-04T17:06:36.376Z,86.50
2018-09-04T17:09:06.032Z,87.20
2018-09-04T17:11:35.122Z,87.00
2018-09-04T17:14:04.357Z,87.80
2018-09-04T17:16:34.513Z,88.00
2018-09-04T17:19:04.037Z,88.30
2018-09-04T17:21:33.281Z,86.70
2018-09-04T17:24:02.574Z,88.40
2018-09-04T17:26:32.716Z,88.00
2018-09-04T17:29:02.113Z,88.00
2018-09-04T17:31:31.360Z,87.90
2018-09-04T17:34:00.606Z,88.30
2018-09-04T17:36:29.677Z,88.60
2018-09-04T17:38:58.801Z,88.90
2018-09-04T17:41:28.031Z,88.90
2018-09-04T17:43:57.159Z,88.30
2018-09-04T17:46:26.297Z,88.60
2018-09-04T17:48:55.434Z,88.20
2018-09-04T17:51:24.712Z,88.40
2018-09-04T17:53:53.845Z,88.00
2018-09-04T17:56:22.956Z,87.80
2018-09-04T17:58:52.105Z,88.00
2018-09-04T18:01:21.289Z,86.20
2018-09-04T18:03:50.645Z,87.40
2018-09-04T18:06:20.567Z,88.30
2018-09-04T18:08:49.922Z,89.20
2018-09-04T18:11:19.334Z,89.50
2018-09-04T18:13:48.593Z,89.00
2018-09-04T18:16:17.658Z,88.80
2018-09-04T18:18:46.802Z,88.00
2018-09-04T18:21:16.080Z,88.30
2018-09-04T18:23:45.363Z,87.60
2018-09-04T18:26:14.578Z,88.10
2018-09-04T18:28:43.893Z,87.50
2018-09-04T18:31:12.990Z,85.50
2018-09-04T18:33:42.172Z,88.60
2018-09-04T18:36:11.321Z,89.00
2018-09-04T18:38:40.571Z,89.10
2018-09-04T18:41:09.830Z,88.90
2018-09-04T18:43:39.020Z,88.50
2018-09-04T18:46:08.309Z,88.40
2018-09-04T18:48:37.669Z,87.90
2018-09-04T18:51:06.935Z,88.10
2018-09-04T18:53:36.042Z,88.20
2018-09-04T18:56:05.153Z,87.60
2018-09-04T18:58:34.216Z,86.80
2018-09-04T19:01:03.336Z,89.00
2018-09-04T19:03:33.106Z,89.70
2018-09-04T19:06:02.464Z,87.80
2018-09-04T19:08:31.841Z,87.00
2018-09-04T19:11:01.134Z,87.40
2018-09-04T19:13:30.511Z,88.50
2018-09-04T19:15:59.870Z,89.20
2018-09-04T19:18:29.108Z,89.50
2018-09-04T19:20:58.461Z,89.50
2018-09-04T19:23:27.549Z,90.00
2018-09-04T19:25:57.657Z,90.20
2018-09-04T19:28:26.918Z,90.10
2018-09-04T19:30:56.218Z,90.30
2018-09-04T19:33:25.864Z,90.30
2018-09-04T19:35:55.061Z,90.30
2018-09-04T19:38:24.311Z,90.40
2018-09-04T19:40:53.500Z,90.50
2018-09-04T19:43:23.036Z,90.70
2018-09-04T19:45:52.281Z,90.70
2018-09-04T19:48:21.506Z,90.80
2018-09-04T19:50:51.091Z,90.80
2018-09-04T19:53:20.332Z,91.00
2018-09-04T19:55:49.580Z,91.00
2018-09-04T19:58:18.763Z,90.80
2018-09-04T20:00:47.983Z,90.80
2018-09-04T20:03:17.144Z,90.90
2018-09-04T20:05:46.273Z,90.90
2018-09-04T20:08:15.398Z,91.10
2018-09-04T20:10:45.638Z,91.00
2018-09-04T20:13:15.571Z,91.00
2018-09-04T20:15:45.225Z,91.10
2018-09-04T20:18:14.494Z,91.10
2018-09-04T20:20:43.769Z,91.50
2018-09-04T20:23:13.171Z,91.20
2018-09-04T20:25:42.498Z,91.30
2018-09-04T20:28:12.509Z,91.40
2018-09-04T20:30:41.827Z,91.40
2018-09-04T20:33:11.142Z,91.40
2018-09-04T20:35:40.361Z,91.30
2018-09-04T20:38:09.898Z,91.30
2018-09-04T20:40:39.083Z,91.30
2018-09-04T20:43:08.266Z,91.50
2018-09-04T20:45:37.430Z,91.50
2018-09-04T20:48:07.655Z,91.60
2018-09-04T20:50:37.047Z,91.70
2018-09-04T20:53:06.453Z,91.80
2018-09-04T20:55:36.006Z,92.00
2018-09-04T20:58:16.175Z,92.00
2018-09-04T21:00:56.145Z,92.00
2018-09-04T21:03:36.346Z,92.00
2018-09-04T21:06:16.521Z,91.90
2018-09-04T21:08:58.497Z,92.00
2018-09-04T21:11:27.620Z,92.10
2018-09-04T21:13:59.133Z,92.00
2018-09-04T21:16:28.312Z,92.10
2018-09-04T21:18:57.603Z,92.10
2018-09-04T21:21:27.063Z,92.20
2018-09-04T21:23:56.367Z,92.20
2018-09-04T21:26:26.714Z,92.40
2018-09-04T21:28:56.855Z,92.50
2018-09-04T21:31:26.575Z,92.60
2018-09-04T21:33:58.125Z,92.60
2018-09-04T21:36:27.725Z,92.60
2018-09-04T21:42:07.023Z,92.60
2018-09-04T21:44:36.395Z,92.50
2018-09-04T21:47:09.155Z,92.50
2018-09-04T21:49:39.374Z,92.70
2018-09-04T21:52:08.824Z,92.80
2018-09-04T21:54:38.235Z,94.40
2018-09-04T21:57:07.567Z,93.70
2018-09-04T21:59:36.939Z,93.00
2018-09-04T22:02:06.420Z,92.80
2018-09-04T22:04:35.927Z,92.90
2018-09-04T22:07:06.516Z,92.80
2018-09-04T22:09:38.449Z,92.80
2018-09-04T22:12:10.119Z,92.80
2018-09-04T22:14:39.882Z,92.90
2018-09-04T22:17:09.280Z,92.90
2018-09-04T22:19:40.898Z,93.30
2018-09-04T22:22:11.628Z,93.00
2018-09-04T22:24:44.417Z,93.00
2018-09-04T22:27:14.024Z,93.00
2018-09-04T22:29:45.221Z,92.90
2018-09-04T22:32:14.636Z,92.80
2018-09-04T22:34:44.059Z,92.80
2018-09-04T22:37:13.411Z,92.80
2018-09-04T22:39:42.714Z,92.70
2018-09-04T22:42:12.099Z,92.70
2018-09-04T22:44:41.398Z,92.80
2018-09-04T22:47:10.774Z,92.90
2018-09-04T22:49:44.160Z,93.10
2018-09-04T22:52:13.531Z,93.20
2018-09-04T22:54:42.847Z,93.20
2018-09-04T22:57:12.224Z,93.40
2018-09-04T22:59:41.616Z,93.50
2018-09-04T23:02:10.992Z,93.60
2018-09-04T23:04:40.312Z,93.70
2018-09-04T23:07:09.743Z,93.60
2018-09-04T23:09:39.123Z,93.60
2018-09-04T23:12:09.464Z,93.70
2018-09-04T23:14:38.896Z,93.80
2018-09-04T23:17:08.254Z,93.80
2018-09-04T23:19:37.650Z,94.00
2018-09-04T23:22:07.104Z,94.20
2018-09-04T23:24:36.575Z,94.30
2018-09-04T23:27:06.607Z,94.40
2018-09-04T23:29:36.251Z,94.50
2018-09-04T23:32:07.475Z,94.60
2018-09-04T23:34:37.415Z,94.60
2018-09-04T23:37:06.853Z,94.90
2018-09-04T23:39:36.290Z,94.90
2018-09-04T23:42:05.667Z,94.90
2018-09-04T23:44:35.075Z,94.80
2018-09-04T23:47:04.567Z,94.70
2018-09-04T23:49:33.957Z,94.40
2018-09-04T23:52:03.281Z,94.60
2018-09-04T23:54:32.695Z,94.50
2018-09-04T23:57:02.110Z,94.50
2018-09-04T23:59:33.313Z,94.60
